EDT,Max TemperatureF,Mean TemperatureF,Min TemperatureF,Max Dew PointF,MeanDew PointF,Min DewpointF,Max Humidity, Mean Humidity, Min Humidity, Max Sea Level PressureIn, Mean Sea Level PressureIn, Min Sea Level PressureIn, Max VisibilityMiles, Mean VisibilityMiles, Min VisibilityMiles, Max Wind SpeedMPH, Mean Wind SpeedMPH, Max Gust SpeedMPH,PrecipitationIn, CloudCover, Events, WindDirDegrees
2012-10-1,76,72,67,72,68,65,100,91,82,29.85,29.80,29.75,7,3,0,12,6,15,0.23,8,Fog-Rain,78
2012-10-2,87,81,74,75,71,65,100,76,51,29.96,29.82,29.74,10,8,2,15,6,24,0.03,6,Rain,180
2012-10-3,81,76,71,71,68,64,93,76,58,30.20,30.08,29.97,10,10,10,8,2,18,0.01,6,Rain,266
2012-10-4,82,74,65,68,66,63,93,74,54,30.26,30.21,30.16,10,8,1,8,2,13,0.41,6,Fog-Rain,243
2012-10-5,81,72,62,65,62,59,93,71,49,30.18,30.11,30.03,10,8,4,8,1,12,0.00,4,Fog,156
2012-10-6,88,74,60,65,60,57,97,67,36,30.03,29.95,29.87,10,8,3,13,3,20,0.00,0,,248
2012-10-7,82,71,60,65,61,51,93,74,55,30.10,29.99,29.92,10,9,6,15,5,20,0.00,4,,15
2012-10-8,60,57,53,54,50,47,86,74,62,30.16,30.12,30.06,10,9,1,16,7,22,0.44,8,Rain,31
2012-10-9,58,53,47,49,48,46,93,83,72,30.18,30.14,30.11,10,9,4,9,4,13,T,7,,353
2012-10-10,77,61,44,56,50,42,93,68,43,30.14,30.09,30.02,10,10,6,20,6,26,0.00,3,,267
2012-10-11,74,61,47,52,47,42,93,66,38,30.30,30.22,30.14,10,10,10,17,2,24,0.00,0,Fog,55
2012-10-12,81,66,50,56,52,47,89,63,36,30.27,30.21,30.15,10,10,9,9,2,12,0.00,2,Fog,16
2012-10-13,75,64,53,55,49,46,89,65,41,30.42,30.34,30.27,10,10,10,14,5,20,0.00,2,,64
2012-10-14,81,66,50,66,56,48,90,70,49,30.29,30.18,30.04,10,10,10,14,3,15,0.01,4,,123
2012-10-15,81,72,63,67,60,44,93,69,45,30.04,29.88,29.76,10,10,8,21,7,26,T,4,Rain,255
2012-10-16,74,60,45,49,44,39,93,61,29,29.99,29.92,29.88,10,10,10,14,2,17,0.00,1,,321
2012-10-17,75,62,49,50,47,44,93,64,35,30.01,29.94,29.90,10,10,6,13,3,17,0.00,3,Fog,130
2012-10-18,82,68,53,63,56,48,93,68,42,29.89,29.83,29.77,10,10,9,14,3,22,0.06,5,,183
2012-10-19,79,64,49,65,47,30,93,56,18,29.84,29.79,29.74,10,9,3,17,6,23,0.23,1,Rain,241
2012-10-20,77,62,47,50,43,40,83,56,28,29.95,29.85,29.81,10,10,10,16,5,21,0.00,1,,262
2012-10-21,74,60,45,50,44,37,89,61,33,30.15,30.08,29.96,10,10,10,13,2,17,0.00,0,,342
2012-10-22,79,62,44,52,46,41,93,62,31,30.25,30.18,30.13,10,10,10,7,1,8,0.00,1,,148
2012-10-23,81,64,46,53,47,43,93,61,28,30.22,30.15,30.10,10,10,9,7,1,10,0.00,1,,90
2012-10-24,83,66,49,60,52,46,100,66,31,30.21,30.15,30.08,10,7,0,7,1,10,0.00,3,Fog,112
2012-10-25,84,68,52,62,57,50,93,67,40,30.12,30.08,30.03,10,10,6,15,4,21,0.00,2,,90
2012-10-26,79,68,56,61,57,52,93,68,42,30.05,29.97,29.87,10,10,6,17,7,25,0.00,4,Fog,27
2012-10-27,75,70,65,60,57,50,84,67,50,29.85,29.73,29.65,10,10,9,20,10,28,0.00,7,,5
2012-10-28,77,66,55,52,48,38,69,51,33,29.69,29.65,29.59,10,10,10,22,8,29,0.00,5,,336
2012-10-29,64,56,47,39,33,28,61,46,30,29.69,29.64,29.56,10,10,10,26,15,37,0.00,3,,301
2012-10-30,61,55,48,32,29,27,54,42,29,29.71,29.58,29.52,10,10,10,24,15,32,0.00,7,,270
2012-10-31,68,54,40,29,24,15,55,35,15,29.82,29.75,29.71,10,10,10,28,10,31,0.00,2,,257